createdAt,value
2022-12-18T00:00:44.079Z,-0.54
2022-12-18T00:03:47.500Z,-0.17
2022-12-18T00:06:50.898Z,-0.53
2022-12-18T00:09:53.883Z,-0.26
2022-12-18T00:12:56.538Z,-0.09
2022-12-18T00:16:08.218Z,-0.11
2022-12-18T00:19:11.137Z,-0.28
2022-12-18T00:22:14.036Z,-0.43
2022-12-18T00:25:20.752Z,-0.25
2022-12-18T00:28:23.645Z,-0.38
2022-12-18T00:31:27.243Z,-0.88
2022-12-18T00:34:30.718Z,-0.93
2022-12-18T00:37:35.251Z,-0.70
2022-12-18T00:40:38.730Z,-0.77
2022-12-18T00:43:41.994Z,-0.64
2022-12-18T00:46:46.309Z,-0.48
2022-12-18T00:49:49.137Z,-0.58
2022-12-18T00:52:52.502Z,-0.70
2022-12-18T00:55:55.128Z,-0.44
2022-12-18T00:58:58.151Z,-0.70
2022-12-18T01:02:00.885Z,-0.77
2022-12-18T01:05:04.253Z,-0.37
2022-12-18T01:08:06.868Z,-0.84
2022-12-18T01:11:12.887Z,-0.73
2022-12-18T01:14:17.012Z,-0.83
2022-12-18T01:17:19.934Z,-0.94
2022-12-18T01:20:22.523Z,-0.90
2022-12-18T01:23:28.195Z,-0.74
2022-12-18T01:26:30.810Z,-0.80
2022-12-18T01:29:33.857Z,-0.92
2022-12-18T01:32:36.537Z,-1.21
2022-12-18T01:35:43.666Z,-0.81
2022-12-18T01:38:46.707Z,-1.11
2022-12-18T01:42:05.139Z,-1.17
2022-12-18T01:45:32.018Z,-1.12
2022-12-18T01:48:34.912Z,-1.19
2022-12-18T01:51:37.906Z,-1.07
2022-12-18T01:54:40.897Z,-1.08
2022-12-18T01:57:43.871Z,-1.17
2022-12-18T02:00:47.254Z,-1.07
2022-12-18T02:03:50.764Z,-1.30
2022-12-18T02:07:06.971Z,-1.20
2022-12-18T02:10:09.877Z,-1.17
2022-12-18T02:13:47.733Z,-1.10
2022-12-18T02:17:14.119Z,-1.08
2022-12-18T02:20:37.335Z,-1.06
2022-12-18T02:24:01.999Z,-1.14
2022-12-18T02:27:07.702Z,-0.97
2022-12-18T02:30:11.466Z,-1.04
2022-12-18T02:33:16.231Z,-0.95
2022-12-18T02:36:21.878Z,-0.95
2022-12-18T02:39:28.781Z,-0.89
2022-12-18T02:42:33.394Z,-0.91
2022-12-18T02:45:36.728Z,-0.75
2022-12-18T02:48:40.097Z,-0.64
2022-12-18T02:51:54.154Z,-0.47
2022-12-18T02:55:15.486Z,-0.48
2022-12-18T02:58:28.049Z,-0.45
2022-12-18T03:01:40.313Z,-0.60
2022-12-18T03:04:52.574Z,-0.49
2022-12-18T03:08:25.439Z,-0.12
2022-12-18T03:11:53.842Z,-0.26
2022-12-18T03:15:19.969Z,-0.06
2022-12-18T03:18:31.073Z,-0.24
2022-12-18T03:21:56.832Z,-0.67
2022-12-18T03:25:03.462Z,-0.28
2022-12-18T03:28:11.023Z,-0.13
2022-12-18T03:31:16.215Z,-0.04
2022-12-18T03:34:30.639Z,-0.23
2022-12-18T03:37:35.914Z,-0.31
2022-12-18T03:41:02.720Z,-0.10
2022-12-18T03:44:08.974Z,-0.10
2022-12-18T03:47:11.602Z,-0.17
2022-12-18T03:50:25.865Z,-0.29
2022-12-18T03:53:54.598Z,0.08
2022-12-18T03:57:06.571Z,-0.06
2022-12-18T04:00:14.723Z,-0.23
2022-12-18T04:03:29.871Z,-0.02
2022-12-18T04:06:37.181Z,-0.11
2022-12-18T04:09:42.910Z,-0.48
2022-12-18T04:12:46.087Z,-0.41
2022-12-18T04:15:49.609Z,-0.12
2022-12-18T04:18:54.042Z,-0.12
2022-12-18T04:21:57.278Z,0.01
2022-12-18T04:25:00.370Z,0.16
2022-12-18T04:28:04.006Z,0.27
2022-12-18T04:31:06.918Z,0.32
2022-12-18T04:34:10.201Z,0.27
2022-12-18T04:37:13.238Z,0.24
2022-12-18T04:40:16.492Z,0.38
2022-12-18T04:43:20.036Z,0.25
2022-12-18T04:46:23.255Z,0.07
2022-12-18T04:49:25.943Z,0.10
2022-12-18T04:52:33.340Z,0.13
2022-12-18T04:55:35.981Z,0.32
2022-12-18T04:58:40.491Z,0.06
2022-12-18T05:01:43.277Z,0.18
2022-12-18T05:04:46.641Z,-0.04
2022-12-18T05:07:49.263Z,0.18
2022-12-18T05:11:03.694Z,0.10
2022-12-18T05:14:06.276Z,0.05
2022-12-18T05:17:09.161Z,-0.13
2022-12-18T05:20:11.940Z,-0.14
2022-12-18T05:23:14.852Z,-0.23
2022-12-18T05:26:19.535Z,0.00
2022-12-18T05:29:22.516Z,0.34
2022-12-18T05:32:25.195Z,0.04
2022-12-18T05:35:28.049Z,0.17
2022-12-18T05:38:32.929Z,0.24
2022-12-18T05:41:36.267Z,-0.03
2022-12-18T05:44:38.901Z,0.03
2022-12-18T05:47:41.794Z,0.24
2022-12-18T05:50:46.591Z,0.17
2022-12-18T05:53:49.954Z,0.02
2022-12-18T05:56:52.561Z,0.08
2022-12-18T05:59:55.562Z,0.01
2022-12-18T06:02:58.175Z,0.19
2022-12-18T06:06:01.045Z,0.13
2022-12-18T06:09:09.316Z,0.11
2022-12-18T06:12:12.278Z,0.28
2022-12-18T06:15:14.807Z,-0.04
2022-12-18T06:18:19.088Z,-0.07
2022-12-18T06:21:21.704Z,-0.13
2022-12-18T06:24:24.602Z,-0.10
2022-12-18T06:27:27.243Z,-0.20
2022-12-18T06:30:30.223Z,-0.23
2022-12-18T06:33:33.635Z,-0.21
2022-12-18T06:36:36.496Z,-0.57
2022-12-18T06:39:40.064Z,-0.46
2022-12-18T06:42:42.976Z,-0.55
2022-12-18T06:45:45.656Z,-0.38
2022-12-18T06:48:50.901Z,-0.28
2022-12-18T06:51:53.558Z,-0.52
2022-12-18T06:54:56.400Z,-0.66
2022-12-18T06:57:59.027Z,-0.64
2022-12-18T07:01:06.877Z,-0.62
2022-12-18T07:04:09.807Z,-0.56
2022-12-18T07:07:12.687Z,-0.46
2022-12-18T07:10:15.433Z,-0.43
2022-12-18T07:13:18.401Z,-0.04
2022-12-18T07:16:25.232Z,-0.19
2022-12-18T07:19:28.755Z,-0.25
2022-12-18T07:22:32.083Z,0.10
2022-12-18T07:25:37.486Z,0.16
2022-12-18T07:28:42.122Z,0.25
2022-12-18T07:31:45.452Z,0.17
2022-12-18T07:34:48.237Z,0.29
2022-12-18T07:37:51.191Z,-0.02
2022-12-18T07:40:53.800Z,0.12
2022-12-18T07:43:56.698Z,0.18
2022-12-18T07:46:59.339Z,0.14
2022-12-18T07:50:02.459Z,0.10
2022-12-18T07:53:05.857Z,-0.21
2022-12-18T07:56:28.133Z,0.15
2022-12-18T07:59:31.019Z,0.74
2022-12-18T08:02:34.080Z,0.56
2022-12-18T08:05:37.651Z,-0.13
2022-12-18T08:08:42.398Z,0.17
2022-12-18T08:11:46.196Z,0.54
2022-12-18T08:14:48.796Z,0.71
2022-12-18T08:17:51.690Z,0.55
2022-12-18T08:20:56.315Z,0.49
2022-12-18T08:24:01.571Z,0.77
2022-12-18T08:27:28.430Z,0.47
2022-12-18T08:30:27.178Z,0.80
2022-12-18T08:33:29.950Z,0.74
2022-12-18T08:36:32.794Z,0.68
2022-12-18T08:39:35.716Z,0.64
2022-12-18T08:42:57.162Z,0.82
2022-12-18T08:45:59.825Z,0.90
2022-12-18T08:49:03.015Z,0.69
2022-12-18T08:52:06.426Z,1.15
2022-12-18T08:55:10.053Z,1.38
2022-12-18T08:58:12.667Z,1.54
2022-12-18T09:01:15.614Z,1.01
2022-12-18T09:04:18.411Z,1.05
2022-12-18T09:07:21.335Z,0.66
2022-12-18T09:10:23.993Z,0.97
2022-12-18T09:13:27.426Z,1.54
2022-12-18T09:16:32.531Z,1.52
2022-12-18T09:19:35.783Z,1.16
2022-12-18T09:22:38.928Z,1.08
2022-12-18T09:25:41.833Z,1.66
2022-12-18T09:28:45.074Z,1.65
2022-12-18T09:31:48.336Z,2.10
2022-12-18T09:34:50.963Z,1.31
2022-12-18T09:37:54.429Z,1.69
2022-12-18T09:41:04.076Z,1.74
2022-12-18T09:44:29.183Z,1.73
2022-12-18T09:47:37.537Z,1.66
2022-12-18T09:50:41.612Z,2.05
2022-12-18T09:54:11.323Z,2.15
2022-12-18T09:57:22.854Z,1.96
2022-12-18T10:00:26.869Z,2.19
2022-12-18T10:03:29.980Z,2.70
2022-12-18T10:07:14.308Z,2.04
2022-12-18T10:10:39.248Z,2.31
2022-12-18T10:13:48.451Z,2.05
2022-12-18T10:17:01.551Z,2.32
2022-12-18T10:20:30.792Z,2.20
2022-12-18T10:23:52.775Z,2.55
2022-12-18T10:27:09.745Z,2.47
2022-12-18T10:30:22.538Z,2.61
2022-12-18T10:33:29.800Z,2.80
2022-12-18T10:36:32.699Z,2.75
2022-12-18T10:39:35.462Z,2.73
2022-12-18T10:42:38.521Z,2.62
2022-12-18T10:45:42.142Z,2.53
2022-12-18T10:48:47.739Z,2.72
2022-12-18T10:51:51.162Z,2.83
2022-12-18T10:54:56.561Z,2.80
2022-12-18T10:58:33.970Z,2.48
2022-12-18T11:01:53.860Z,2.64
2022-12-18T11:04:56.583Z,2.94
2022-12-18T11:08:01.371Z,2.67
2022-12-18T11:11:08.485Z,2.96
2022-12-18T11:14:22.189Z,2.77
2022-12-18T11:17:36.008Z,3.13
2022-12-18T11:20:40.125Z,3.17
2022-12-18T11:23:53.431Z,2.63
2022-12-18T11:27:02.716Z,2.55
2022-12-18T11:30:33.127Z,3.09
2022-12-18T11:33:53.118Z,2.76
2022-12-18T11:37:05.416Z,2.57
2022-12-18T11:40:17.650Z,2.75
2022-12-18T11:43:29.590Z,2.94
2022-12-18T11:46:38.235Z,3.19
2022-12-18T11:49:42.474Z,3.19
2022-12-18T11:52:45.867Z,3.04
2022-12-18T11:55:53.196Z,3.00
2022-12-18T11:59:14.602Z,3.19
2022-12-18T12:02:35.719Z,3.01
2022-12-18T12:06:43.631Z,3.24
2022-12-18T12:09:55.315Z,3.05
2022-12-18T12:13:35.356Z,3.29
2022-12-18T12:16:54.752Z,3.23
2022-12-18T12:20:04.064Z,3.24
2022-12-18T12:23:28.058Z,3.29
2022-12-18T12:26:55.263Z,3.08
2022-12-18T12:30:03.800Z,3.20
2022-12-18T12:33:26.083Z,3.03
2022-12-18T12:36:28.584Z,2.81
2022-12-18T12:39:41.211Z,2.93
2022-12-18T12:43:14.487Z,2.83
2022-12-18T12:46:21.052Z,2.93
2022-12-18T12:49:30.196Z,3.04
2022-12-18T12:52:41.809Z,2.89
2022-12-18T12:55:44.743Z,2.95
2022-12-18T12:59:03.175Z,2.94
2022-12-18T13:02:12.076Z,2.87
2022-12-18T13:05:32.671Z,2.68
2022-12-18T13:08:57.278Z,2.87
2022-12-18T13:12:25.332Z,2.85
2022-12-18T13:15:42.055Z,2.89
2022-12-18T13:18:54.251Z,2.84
2022-12-18T13:21:57.592Z,2.83
2022-12-18T13:25:01.073Z,2.96
2022-12-18T13:28:09.711Z,2.88
2022-12-18T13:31:14.232Z,2.81
2022-12-18T13:34:27.514Z,2.88
2022-12-18T13:37:34.653Z,2.89
2022-12-18T13:40:40.468Z,2.71
2022-12-18T13:43:51.515Z,2.58
2022-12-18T13:46:55.102Z,3.02
2022-12-18T13:49:59.270Z,2.73
2022-12-18T13:53:02.025Z,2.50
2022-12-18T13:56:05.969Z,2.71
2022-12-18T13:59:24.682Z,2.63
2022-12-18T14:02:29.846Z,2.61
2022-12-18T14:05:37.268Z,2.53
2022-12-18T14:08:44.548Z,2.54
2022-12-18T14:11:50.503Z,2.52
2022-12-18T14:14:55.235Z,2.44
2022-12-18T14:18:09.862Z,2.45
2022-12-18T14:21:21.985Z,2.44
2022-12-18T14:24:25.014Z,2.45
2022-12-18T14:27:27.639Z,2.27
2022-12-18T14:30:39.783Z,2.06
2022-12-18T14:33:42.748Z,1.96
2022-12-18T14:36:56.939Z,1.70
2022-12-18T14:40:08.645Z,1.73
2022-12-18T14:43:13.772Z,1.65
2022-12-18T14:46:39.398Z,1.66
2022-12-18T14:49:43.615Z,1.46
2022-12-18T14:52:46.422Z,1.22
2022-12-18T14:55:50.613Z,1.10
2022-12-18T14:58:59.871Z,1.27
2022-12-18T15:02:06.095Z,1.13
2022-12-18T15:05:25.511Z,0.93
2022-12-18T15:08:36.834Z,1.04
2022-12-18T15:11:42.754Z,0.99
2022-12-18T15:14:45.728Z,0.66
2022-12-18T15:17:48.501Z,0.37
2022-12-18T15:20:54.427Z,0.73
2022-12-18T15:24:00.344Z,0.64
2022-12-18T15:27:05.018Z,0.53
2022-12-18T15:30:10.807Z,0.27
2022-12-18T15:33:30.748Z,0.08
2022-12-18T15:36:37.399Z,0.15
2022-12-18T15:39:40.262Z,0.02
2022-12-18T15:43:02.471Z,0.08
2022-12-18T15:46:17.131Z,0.30
2022-12-18T15:49:20.071Z,0.52
2022-12-18T15:52:27.070Z,0.29
2022-12-18T15:55:48.719Z,0.26
2022-12-18T15:58:51.903Z,0.20
2022-12-18T16:01:55.221Z,-0.23
2022-12-18T16:04:58.532Z,-0.33
2022-12-18T16:08:01.435Z,-0.44
2022-12-18T16:11:04.837Z,-0.65
2022-12-18T16:14:28.246Z,-0.73
2022-12-18T16:17:31.890Z,-0.76
2022-12-18T16:20:34.824Z,-0.86
2022-12-18T16:23:38.505Z,-0.83
2022-12-18T16:26:43.028Z,-0.93
2022-12-18T16:29:46.610Z,-0.93
2022-12-18T16:32:49.695Z,-1.07
2022-12-18T16:35:53.761Z,-1.12
2022-12-18T16:38:56.621Z,-1.06
2022-12-18T16:42:00.216Z,-0.79
2022-12-18T16:45:07.329Z,-0.87
2022-12-18T16:48:10.243Z,-0.98
2022-12-18T16:51:13.219Z,-0.94
2022-12-18T16:54:18.999Z,-0.93
2022-12-18T16:57:25.526Z,-1.13
2022-12-18T17:00:29.035Z,-1.22
2022-12-18T17:03:31.967Z,-0.69
2022-12-18T17:06:39.726Z,-0.93
2022-12-18T17:09:43.069Z,-1.05
2022-12-18T17:12:46.167Z,-1.01
2022-12-18T17:15:49.459Z,-1.30
2022-12-18T17:18:53.603Z,-1.08
2022-12-18T17:21:56.515Z,-1.07
2022-12-18T17:24:59.432Z,-1.18
2022-12-18T17:28:02.338Z,-1.36
2022-12-18T17:31:13.148Z,-1.51
2022-12-18T17:34:16.104Z,-1.22
2022-12-18T17:37:19.364Z,-1.08
2022-12-18T17:40:22.270Z,-1.12
2022-12-18T17:43:25.468Z,-1.51
2022-12-18T17:46:30.803Z,-1.57
2022-12-18T17:49:34.030Z,-1.62
2022-12-18T17:52:37.446Z,-1.51
2022-12-18T17:55:41.578Z,-1.22
2022-12-18T17:58:45.361Z,-1.62
2022-12-18T18:01:49.123Z,-1.94
2022-12-18T18:04:52.512Z,-1.76
2022-12-18T18:07:55.450Z,-2.00
2022-12-18T18:11:21.644Z,-1.92
2022-12-18T18:14:24.757Z,-1.49
2022-12-18T18:17:27.912Z,-1.44
2022-12-18T18:20:30.782Z,-1.43
2022-12-18T18:23:35.294Z,-1.33
2022-12-18T18:26:39.572Z,-1.50
2022-12-18T18:29:42.800Z,-1.59
2022-12-18T18:32:46.192Z,-1.55
2022-12-18T18:35:56.296Z,-1.51
2022-12-18T18:39:03.128Z,-1.24
2022-12-18T18:42:06.342Z,-1.33
2022-12-18T18:45:10.339Z,-1.48
2022-12-18T18:48:14.133Z,-1.59
2022-12-18T18:51:21.484Z,-1.91
2022-12-18T18:54:26.506Z,-1.95
2022-12-18T18:57:30.611Z,-2.19
2022-12-18T19:00:33.782Z,-2.23
2022-12-18T19:03:38.085Z,-2.16
2022-12-18T19:06:42.873Z,-2.09
2022-12-18T19:09:51.967Z,-2.20
2022-12-18T19:13:14.173Z,-2.33
2022-12-18T19:16:16.887Z,-2.37
2022-12-18T19:19:23.269Z,-2.20
2022-12-18T19:22:26.137Z,-2.37
2022-12-18T19:25:40.179Z,-2.58
2022-12-18T19:28:45.183Z,-2.54
2022-12-18T19:31:48.417Z,-2.56
2022-12-18T19:34:52.981Z,-2.66
2022-12-18T19:37:56.274Z,-2.58
2022-12-18T19:40:59.952Z,-1.97
2022-12-18T19:44:08.351Z,-2.20
2022-12-18T19:47:11.207Z,-2.54
2022-12-18T19:50:14.844Z,-2.60
2022-12-18T19:53:17.628Z,-2.59
2022-12-18T19:56:23.582Z,-2.56
2022-12-18T19:59:26.604Z,-2.62
2022-12-18T20:02:31.241Z,-2.48
2022-12-18T20:05:41.417Z,-2.40
2022-12-18T20:08:44.555Z,-2.66
2022-12-18T20:11:47.776Z,-2.64
2022-12-18T20:14:50.824Z,-2.70
2022-12-18T20:17:53.860Z,-2.25
2022-12-18T20:20:57.260Z,-2.53
2022-12-18T20:24:02.505Z,-2.56
2022-12-18T20:27:07.734Z,-2.60
2022-12-18T20:30:14.206Z,-2.80
2022-12-18T20:33:17.228Z,-2.74
2022-12-18T20:36:22.644Z,-2.93
2022-12-18T20:39:27.651Z,-2.79
2022-12-18T20:42:31.655Z,-2.55
2022-12-18T20:45:34.452Z,-2.61
2022-12-18T20:48:38.708Z,-2.96
2022-12-18T20:51:41.661Z,-3.04
2022-12-18T20:54:44.852Z,-3.01
2022-12-18T20:57:48.281Z,-3.09
2022-12-18T21:01:06.421Z,-2.97
2022-12-18T21:04:09.541Z,-3.05
2022-12-18T21:07:12.462Z,-2.44
2022-12-18T21:10:15.441Z,-2.41
2022-12-18T21:13:18.682Z,-2.32
2022-12-18T21:16:21.389Z,-2.51
2022-12-18T21:19:27.221Z,-2.77
2022-12-18T21:22:30.241Z,-2.97
2022-12-18T21:25:33.237Z,-3.12
2022-12-18T21:28:35.935Z,-3.19
2022-12-18T21:31:39.878Z,-2.94
2022-12-18T21:34:47.778Z,-3.33
2022-12-18T21:37:52.238Z,-3.30
2022-12-18T21:40:56.208Z,-3.47
2022-12-18T21:44:08.764Z,-3.34
2022-12-18T21:47:22.326Z,-3.30
2022-12-18T21:50:26.671Z,-3.42
2022-12-18T21:53:29.181Z,-3.04
2022-12-18T21:56:52.026Z,-3.30
2022-12-18T21:59:54.721Z,-3.16
2022-12-18T22:03:15.574Z,-3.52
2022-12-18T22:06:20.764Z,-3.23
2022-12-18T22:09:25.142Z,-2.83
2022-12-18T22:12:43.275Z,-2.98
2022-12-18T22:15:47.115Z,-3.35
2022-12-18T22:18:50.046Z,-3.35
2022-12-18T22:21:52.785Z,-3.11
2022-12-18T22:24:55.648Z,-3.54
2022-12-18T22:28:16.541Z,-3.68
2022-12-18T22:31:19.503Z,-3.76
2022-12-18T22:34:23.361Z,-3.85
2022-12-18T22:37:26.359Z,-3.94
2022-12-18T22:40:29.428Z,-3.65
2022-12-18T22:43:33.482Z,-3.53
2022-12-18T22:46:39.575Z,-3.23
2022-12-18T22:49:42.523Z,-3.16
2022-12-18T22:52:45.148Z,-3.13
2022-12-18T22:55:47.992Z,-3.39
2022-12-18T22:58:51.947Z,-3.74
2022-12-18T23:01:59.230Z,-3.31
2022-12-18T23:05:02.111Z,-3.26
2022-12-18T23:08:05.222Z,-3.32
2022-12-18T23:11:08.919Z,-3.40
2022-12-18T23:14:12.334Z,-3.64
2022-12-18T23:17:14.979Z,-3.69
2022-12-18T23:20:17.811Z,-3.82
2022-12-18T23:23:20.466Z,-3.87
2022-12-18T23:26:25.172Z,-3.48
2022-12-18T23:29:27.902Z,-3.24
2022-12-18T23:32:30.832Z,-3.70
2022-12-18T23:35:35.602Z,-3.85
2022-12-18T23:38:39.199Z,-3.59
2022-12-18T23:41:41.736Z,-3.87
2022-12-18T23:44:44.630Z,-3.59
2022-12-18T23:47:48.744Z,-3.10
2022-12-18T23:50:54.379Z,-3.88
2022-12-18T23:53:59.611Z,-4.16
2022-12-18T23:57:02.682Z,-4.11
